createdAt,value
2018-11-03T00:01:39.335Z,21.30
2018-11-03T00:04:09.235Z,21.70
2018-11-03T00:06:39.142Z,22.30
2018-11-03T00:09:10.526Z,22.37
2018-11-03T00:11:40.730Z,21.83
2018-11-03T00:14:10.798Z,22.90
2018-11-03T00:16:40.674Z,22.33
2018-11-03T00:19:10.606Z,22.63
2018-11-03T00:21:40.417Z,21.90
2018-11-03T00:24:10.379Z,21.57
2018-11-03T00:26:40.236Z,23.67
2018-11-03T00:29:10.136Z,22.07
2018-11-03T00:31:40.045Z,23.47
2018-11-03T00:34:09.955Z,21.53
2018-11-03T00:36:39.835Z,24.20
2018-11-03T00:39:11.760Z,24.87
2018-11-03T00:41:42.172Z,25.30
2018-11-03T00:44:12.078Z,25.00
2018-11-03T00:46:41.992Z,25.20
2018-11-03T00:49:11.882Z,23.87
2018-11-03T00:51:41.734Z,24.60
2018-11-03T00:54:11.631Z,26.27
2018-11-03T00:56:41.467Z,26.67
2018-11-03T00:59:11.362Z,28.50
2018-11-03T01:01:41.146Z,25.87
2018-11-03T01:04:11.087Z,26.10
2018-11-03T01:06:41.013Z,24.60
2018-11-03T01:09:10.897Z,25.50
2018-11-03T01:11:40.783Z,25.07
2018-11-03T01:14:10.712Z,24.13
2018-11-03T01:16:40.500Z,23.90
2018-11-03T01:19:10.362Z,23.30
2018-11-03T01:21:40.231Z,24.20
2018-11-03T01:24:10.068Z,23.70
2018-11-03T01:26:39.986Z,23.77
2018-11-03T01:29:09.862Z,23.80
2018-11-03T01:31:39.687Z,24.77
2018-11-03T01:34:09.581Z,24.37
2018-11-03T01:36:39.524Z,25.97
2018-11-03T01:39:11.210Z,26.47
2018-11-03T01:41:41.162Z,24.57
2018-11-03T01:44:11.046Z,24.80
2018-11-03T01:46:40.886Z,24.80
2018-11-03T01:49:10.797Z,25.27
2018-11-03T01:51:40.692Z,25.00
2018-11-03T01:54:10.529Z,26.10
2018-11-03T01:56:40.448Z,24.40
2018-11-03T01:59:10.344Z,25.27
2018-11-03T02:01:40.258Z,26.20
2018-11-03T02:04:10.267Z,25.77
2018-11-03T02:06:40.178Z,26.50
2018-11-03T02:09:10.870Z,24.53
2018-11-03T02:11:40.816Z,26.57
2018-11-03T02:14:11.693Z,25.53
2018-11-03T02:16:41.687Z,25.73
2018-11-03T02:19:11.524Z,26.93
2018-11-03T02:21:41.296Z,26.03
2018-11-03T02:24:11.236Z,26.13
2018-11-03T02:26:41.054Z,26.63
2018-11-03T02:29:11.066Z,26.50
2018-11-03T02:31:41.029Z,26.47
2018-11-03T02:34:10.849Z,27.40
2018-11-03T02:36:40.723Z,28.13
2018-11-03T02:39:10.963Z,27.57
2018-11-03T02:41:40.814Z,27.07
2018-11-03T02:44:10.773Z,28.23
2018-11-03T02:46:40.633Z,27.97
2018-11-03T02:49:10.568Z,28.27
2018-11-03T02:51:40.342Z,28.30
2018-11-03T02:54:10.262Z,26.90
2018-11-03T02:56:40.121Z,27.03
2018-11-03T02:59:10.540Z,26.77
2018-11-03T03:01:40.446Z,28.13
2018-11-03T03:04:10.275Z,28.30
2018-11-03T03:06:40.166Z,28.93
2018-11-03T03:09:10.056Z,27.33
2018-11-03T03:11:39.884Z,27.73
2018-11-03T03:14:09.927Z,28.90
2018-11-03T03:16:39.818Z,27.67
2018-11-03T03:19:09.725Z,27.97
2018-11-03T03:21:39.580Z,28.13
2018-11-03T03:24:09.490Z,27.90
2018-11-03T03:26:39.307Z,26.90
2018-11-03T03:29:09.325Z,28.33
2018-11-03T03:31:39.136Z,27.23
2018-11-03T03:34:09.059Z,26.93
2018-11-03T03:36:38.899Z,25.20
2018-11-03T03:39:10.486Z,25.53
2018-11-03T03:41:40.754Z,28.00
2018-11-03T03:44:10.625Z,25.90
2018-11-03T03:46:40.507Z,26.23
2018-11-03T03:49:10.334Z,24.70
2018-11-03T03:51:40.255Z,24.63
2018-11-03T03:54:10.190Z,22.97
2018-11-03T03:56:40.037Z,23.90
2018-11-03T03:59:09.974Z,23.77
2018-11-03T04:01:39.754Z,22.80
2018-11-03T04:04:09.547Z,23.10
2018-11-03T04:06:39.363Z,22.00
2018-11-03T04:09:10.005Z,23.30
2018-11-03T04:11:39.835Z,22.53
2018-11-03T04:14:09.789Z,22.13
2018-11-03T04:16:39.805Z,24.03
2018-11-03T04:19:09.660Z,23.63
2018-11-03T04:21:39.450Z,22.67
2018-11-03T04:24:09.481Z,21.93
2018-11-03T04:26:39.352Z,22.17
2018-11-03T04:29:09.236Z,20.87
2018-11-03T04:31:39.092Z,22.07
2018-11-03T04:34:08.952Z,20.90
2018-11-03T04:36:38.817Z,21.30
2018-11-03T04:39:08.880Z,21.27
2018-11-03T04:41:38.666Z,20.37
2018-11-03T04:44:08.703Z,22.03
2018-11-03T04:46:38.610Z,20.93
2018-11-03T04:49:08.435Z,20.70
2018-11-03T04:51:38.200Z,21.00
2018-11-03T04:54:08.186Z,19.67
2018-11-03T04:56:38.040Z,19.27
2018-11-03T04:59:07.936Z,19.63
2018-11-03T05:01:37.808Z,19.73
2018-11-03T05:04:07.657Z,20.53
2018-11-03T05:06:37.496Z,19.50
2018-11-03T05:09:09.503Z,21.23
2018-11-03T05:11:39.567Z,24.23
2018-11-03T05:14:10.242Z,24.97
2018-11-03T05:16:40.149Z,25.20
2018-11-03T05:19:10.057Z,24.00
2018-11-03T05:21:39.903Z,25.37
2018-11-03T05:24:09.751Z,25.43
2018-11-03T05:26:39.638Z,25.03
2018-11-03T05:29:09.992Z,24.87
2018-11-03T05:31:39.896Z,25.10
2018-11-03T05:34:10.227Z,26.23
2018-11-03T05:36:40.172Z,31.30
2018-11-03T05:39:11.622Z,31.83
2018-11-03T05:41:42.168Z,32.27
2018-11-03T05:44:12.585Z,33.00
2018-11-03T05:46:42.767Z,29.50
2018-11-03T05:49:12.872Z,32.43
2018-11-03T05:51:42.668Z,32.87
2018-11-03T05:54:12.555Z,31.33
2018-11-03T05:56:42.422Z,30.37
2018-11-03T05:59:12.287Z,31.47
2018-11-03T06:01:42.136Z,31.03
2018-11-03T06:04:12.027Z,29.53
2018-11-03T06:06:41.871Z,29.70
2018-11-03T06:09:12.139Z,29.10
2018-11-03T06:11:41.931Z,28.10
2018-11-03T06:14:11.877Z,30.53
2018-11-03T06:16:41.724Z,30.70
2018-11-03T06:19:11.575Z,30.80
2018-11-03T06:21:41.481Z,27.67
2018-11-03T06:24:11.372Z,25.80
2018-11-03T06:26:41.385Z,27.27
2018-11-03T06:29:11.222Z,28.23
2018-11-03T06:31:41.542Z,29.33
2018-11-03T06:34:11.415Z,29.40
2018-11-03T06:36:41.324Z,29.27
2018-11-03T06:39:11.203Z,29.73
2018-11-03T06:41:41.049Z,30.07
2018-11-03T06:44:10.981Z,28.77
2018-11-03T06:46:40.859Z,30.40
2018-11-03T06:49:15.818Z,29.47
2018-11-03T06:51:45.635Z,48.03
2018-11-03T06:54:15.454Z,49.93
2018-11-03T06:56:45.395Z,37.17
2018-11-03T06:59:15.586Z,31.30
2018-11-03T07:01:45.459Z,29.17
2018-11-03T07:04:15.466Z,29.13
2018-11-03T07:06:45.353Z,28.40
2018-11-03T07:09:15.204Z,31.03
2018-11-03T07:11:45.091Z,30.93
2018-11-03T07:14:14.912Z,31.93
2018-11-03T07:16:44.838Z,32.33
2018-11-03T07:19:14.971Z,30.83
2018-11-03T07:21:44.905Z,31.77
2018-11-03T07:24:14.742Z,33.13
2018-11-03T07:26:44.662Z,32.43
2018-11-03T07:29:14.494Z,32.93
2018-11-03T07:31:44.415Z,33.07
2018-11-03T07:34:14.419Z,32.13
2018-11-03T07:36:44.291Z,32.10
2018-11-03T07:39:14.332Z,32.77
2018-11-03T07:41:44.158Z,31.50
2018-11-03T07:44:14.056Z,31.23
2018-11-03T07:46:43.982Z,30.00
2018-11-03T07:49:17.547Z,31.20
2018-11-03T07:51:48.500Z,31.60
2018-11-03T07:54:18.491Z,31.77
2018-11-03T07:56:48.379Z,32.20
2018-11-03T07:59:18.305Z,31.67
2018-11-03T08:01:48.206Z,31.80
2018-11-03T08:04:18.130Z,30.97
2018-11-03T08:06:48.000Z,31.53
2018-11-03T08:09:18.036Z,29.63
2018-11-03T08:11:47.830Z,30.63
2018-11-03T08:14:17.750Z,33.47
2018-11-03T08:16:47.762Z,33.30
2018-11-03T08:19:17.572Z,34.43
2018-11-03T08:21:47.370Z,33.70
2018-11-03T08:24:17.394Z,34.13
2018-11-03T08:26:47.318Z,34.97
2018-11-03T08:29:17.264Z,35.47
2018-11-03T08:31:47.336Z,35.47
2018-11-03T08:34:17.003Z,35.73
2018-11-03T08:36:46.873Z,33.80
2018-11-03T08:39:16.774Z,34.90
2018-11-03T08:41:46.564Z,34.90
2018-11-03T08:44:16.518Z,33.67
2018-11-03T08:46:46.458Z,34.03
2018-11-03T08:49:16.407Z,30.17
2018-11-03T08:51:46.324Z,29.63
2018-11-03T08:54:16.257Z,26.83
2018-11-03T08:56:46.157Z,26.57
2018-11-03T08:59:16.094Z,25.93
2018-11-03T09:01:45.958Z,25.93
2018-11-03T09:04:15.894Z,24.10
2018-11-03T09:06:45.828Z,26.93
2018-11-03T09:09:15.779Z,27.90
2018-11-03T09:11:45.813Z,26.03
2018-11-03T09:14:16.030Z,27.17
2018-11-03T09:16:46.042Z,27.17
2018-11-03T09:19:15.987Z,27.00
2018-11-03T09:21:45.947Z,26.27
2018-11-03T09:24:15.930Z,25.10
2018-11-03T09:26:45.869Z,25.47
2018-11-03T09:29:15.822Z,25.17
2018-11-03T09:31:45.713Z,24.50
2018-11-03T09:34:15.611Z,24.17
2018-11-03T09:36:45.514Z,26.17
2018-11-03T09:39:15.446Z,24.40
2018-11-03T09:41:45.250Z,37.47
2018-11-03T09:44:15.218Z,33.03
2018-11-03T09:46:45.152Z,25.10
2018-11-03T09:49:15.026Z,26.20
2018-11-03T09:51:44.986Z,25.73
2018-11-03T09:54:14.974Z,26.40
2018-11-03T09:56:44.916Z,26.00
2018-11-03T09:59:14.855Z,26.37
2018-11-03T10:01:44.811Z,26.57
2018-11-03T10:04:14.699Z,27.03
2018-11-03T10:06:44.841Z,28.57
2018-11-03T10:09:14.743Z,30.20
2018-11-03T10:11:44.721Z,29.97
2018-11-03T10:14:14.668Z,29.60
2018-11-03T10:16:44.707Z,29.80
2018-11-03T10:19:14.638Z,28.77
2018-11-03T10:21:44.583Z,29.50
2018-11-03T10:24:14.601Z,27.67
2018-11-03T10:26:44.560Z,26.73
2018-11-03T10:29:14.488Z,25.97
2018-11-03T10:31:44.339Z,24.97
2018-11-03T10:34:14.175Z,26.33
2018-11-03T10:36:44.071Z,25.47
2018-11-03T10:39:14.189Z,26.07
2018-11-03T10:41:44.025Z,31.93
2018-11-03T10:44:13.919Z,29.30
2018-11-03T10:46:43.931Z,26.40
2018-11-03T10:49:13.892Z,24.57
2018-11-03T10:51:43.779Z,25.17
2018-11-03T10:54:13.785Z,25.87
2018-11-03T10:56:43.713Z,25.83
2018-11-03T10:59:13.551Z,25.23
2018-11-03T11:01:48.511Z,26.57
2018-11-03T11:04:23.506Z,24.87
2018-11-03T11:06:58.663Z,26.03
2018-11-03T11:09:35.555Z,25.70
2018-11-03T11:12:13.367Z,34.07
2018-11-03T11:14:43.259Z,28.10
2018-11-03T11:17:13.214Z,26.07
2018-11-03T11:19:43.193Z,23.47
2018-11-03T11:22:12.982Z,25.57
2018-11-03T11:24:42.984Z,23.17
2018-11-03T11:27:12.950Z,24.23
2018-11-03T11:29:42.878Z,25.33
2018-11-03T11:32:12.716Z,24.40
2018-11-03T11:34:42.654Z,25.97
2018-11-03T11:37:12.659Z,25.73
2018-11-03T11:39:42.594Z,25.97
2018-11-03T11:42:12.525Z,24.60
2018-11-03T11:44:42.434Z,25.00
2018-11-03T11:47:12.375Z,26.00
2018-11-03T11:49:42.293Z,26.23
2018-11-03T11:52:12.267Z,26.83
2018-11-03T11:54:42.250Z,27.37
2018-11-03T11:57:12.200Z,28.93
2018-11-03T11:59:42.470Z,29.20
2018-11-03T12:02:12.417Z,30.30
2018-11-03T12:04:42.323Z,28.90
2018-11-03T12:07:12.223Z,26.77
2018-11-03T12:09:42.150Z,29.20
2018-11-03T12:12:12.071Z,32.60
2018-11-03T12:14:42.027Z,32.00
2018-11-03T12:17:11.903Z,29.33
2018-11-03T12:19:41.889Z,29.27
2018-11-03T12:22:11.758Z,32.80
2018-11-03T12:24:41.687Z,29.87
2018-11-03T12:27:11.683Z,28.57
2018-11-03T12:29:41.668Z,29.70
2018-11-03T12:32:11.563Z,28.93
2018-11-03T12:34:41.501Z,27.10
2018-11-03T12:37:11.406Z,27.03
2018-11-03T12:39:41.339Z,28.10
2018-11-03T12:42:11.243Z,27.53
2018-11-03T12:44:41.159Z,28.70
2018-11-03T12:47:11.110Z,27.20
2018-11-03T12:49:40.973Z,27.10
2018-11-03T12:52:10.829Z,25.83
2018-11-03T12:54:40.791Z,26.97
2018-11-03T12:57:10.667Z,26.43
2018-11-03T12:59:40.551Z,27.27
2018-11-03T13:02:10.567Z,30.53
2018-11-03T13:04:40.434Z,27.33
2018-11-03T13:07:10.439Z,27.93
2018-11-03T13:09:40.493Z,28.03
2018-11-03T13:12:10.496Z,27.90
2018-11-03T13:14:40.404Z,27.73
2018-11-03T13:17:10.316Z,27.37
2018-11-03T13:19:40.214Z,26.77
2018-11-03T13:22:10.099Z,26.87
2018-11-03T13:24:40.093Z,25.27
2018-11-03T13:27:10.022Z,26.23
2018-11-03T13:29:39.948Z,26.60
2018-11-03T13:32:10.007Z,26.77
2018-11-03T13:34:39.973Z,27.43
2018-11-03T13:37:09.949Z,27.53
2018-11-03T13:39:39.938Z,27.37
2018-11-03T13:42:09.810Z,27.20
2018-11-03T13:44:39.762Z,27.80
2018-11-03T13:47:09.733Z,27.77
2018-11-03T13:49:39.568Z,28.17
2018-11-03T13:52:09.504Z,29.27
2018-11-03T13:54:39.423Z,28.47
2018-11-03T13:57:09.487Z,28.20
2018-11-03T13:59:39.234Z,27.80
2018-11-03T14:02:09.186Z,27.73
2018-11-03T14:04:39.136Z,29.00
2018-11-03T14:07:09.046Z,29.17
2018-11-03T14:09:38.945Z,29.23
2018-11-03T14:12:08.829Z,28.43
2018-11-03T14:14:38.686Z,28.90
2018-11-03T14:17:08.739Z,30.03
2018-11-03T14:19:38.566Z,29.93
2018-11-03T14:22:08.441Z,30.37
2018-11-03T14:24:38.338Z,31.67
2018-11-03T14:27:08.275Z,32.87
2018-11-03T14:29:38.179Z,31.77
2018-11-03T14:32:08.148Z,31.67
2018-11-03T14:34:38.051Z,33.70
2018-11-03T14:37:08.170Z,34.37
2018-11-03T14:39:38.139Z,34.13
2018-11-03T14:42:08.023Z,34.87
2018-11-03T14:44:37.945Z,34.77
2018-11-03T14:47:07.890Z,34.67
2018-11-03T14:49:37.712Z,36.47
2018-11-03T14:52:07.578Z,34.93
2018-11-03T14:54:37.500Z,36.63
2018-11-03T14:57:07.521Z,38.17
2018-11-03T14:59:37.467Z,36.30
2018-11-03T15:02:07.355Z,36.73
2018-11-03T15:04:37.303Z,37.13
2018-11-03T15:07:07.365Z,36.53
2018-11-03T15:09:37.366Z,36.87
2018-11-03T15:12:07.330Z,37.20
2018-11-03T15:14:37.282Z,36.67
2018-11-03T15:17:07.510Z,36.70
2018-11-03T15:19:37.406Z,38.33
2018-11-03T15:22:07.671Z,38.10
2018-11-03T15:24:37.620Z,37.40
2018-11-03T15:27:07.511Z,35.90
2018-11-03T15:29:37.370Z,37.30
2018-11-03T15:32:07.356Z,36.83
2018-11-03T15:34:37.320Z,34.97
2018-11-03T15:37:07.546Z,36.67
2018-11-03T15:39:37.427Z,36.03
2018-11-03T15:42:07.335Z,35.53
2018-11-03T15:44:37.238Z,36.93
2018-11-03T15:47:07.223Z,38.40
2018-11-03T15:49:37.231Z,44.00
2018-11-03T15:52:07.151Z,42.90
2018-11-03T15:54:37.078Z,38.70
2018-11-03T15:57:07.067Z,36.67
2018-11-03T15:59:37.031Z,38.30
2018-11-03T16:02:06.976Z,35.77
2018-11-03T16:04:36.807Z,38.07
2018-11-03T16:07:07.111Z,40.07
2018-11-03T16:09:36.998Z,38.40
2018-11-03T16:12:07.227Z,38.80
2018-11-03T16:14:37.051Z,43.97
2018-11-03T16:17:06.985Z,35.50
2018-11-03T16:19:36.952Z,35.83
2018-11-03T16:22:06.771Z,36.37
2018-11-03T16:24:36.559Z,36.33
2018-11-03T16:27:06.980Z,36.27
2018-11-03T16:29:36.986Z,37.10
2018-11-03T16:32:06.969Z,37.53
2018-11-03T16:34:36.796Z,36.10
2018-11-03T16:37:06.740Z,36.87
2018-11-03T16:39:36.711Z,40.20
2018-11-03T16:42:06.739Z,39.30
2018-11-03T16:44:36.569Z,38.20
2018-11-03T16:47:06.948Z,38.73
2018-11-03T16:49:36.946Z,37.90
2018-11-03T16:52:06.807Z,39.20
2018-11-03T16:54:36.619Z,38.50
2018-11-03T16:57:06.507Z,38.53
2018-11-03T16:59:36.354Z,40.13
2018-11-03T17:02:06.630Z,43.33
2018-11-03T17:04:36.442Z,43.17
2018-11-03T17:07:06.374Z,44.07
2018-11-03T17:09:36.247Z,44.40
2018-11-03T17:12:06.522Z,47.23
2018-11-03T17:14:36.374Z,49.10
2018-11-03T17:17:06.264Z,48.83
2018-11-03T17:19:36.254Z,49.43
2018-11-03T17:22:06.414Z,45.83
2018-11-03T17:24:36.255Z,44.93
2018-11-03T17:27:06.192Z,46.87
2018-11-03T17:29:36.208Z,55.27
2018-11-03T17:32:06.414Z,52.23
2018-11-03T17:34:36.400Z,48.93
2018-11-03T17:37:06.366Z,48.50
2018-11-03T17:39:36.210Z,44.00
2018-11-03T17:42:06.346Z,40.60
2018-11-03T17:44:36.230Z,42.43
2018-11-03T17:47:06.622Z,44.53
2018-11-03T17:49:36.851Z,41.27
2018-11-03T17:52:07.025Z,42.67
2018-11-03T17:54:36.935Z,43.67
2018-11-03T17:57:06.954Z,45.97
2018-11-03T17:59:36.892Z,45.90
2018-11-03T18:02:06.831Z,46.93
2018-11-03T18:04:36.678Z,47.73
2018-11-03T18:07:06.902Z,47.80
2018-11-03T18:09:36.801Z,73.30
2018-11-03T18:12:06.794Z,63.27
2018-11-03T18:14:36.816Z,51.43
2018-11-03T18:17:06.783Z,48.43
2018-11-03T18:19:36.752Z,47.90
2018-11-03T18:22:06.651Z,48.13
2018-11-03T18:24:36.766Z,47.07
2018-11-03T18:27:07.036Z,46.97
2018-11-03T18:29:37.112Z,44.73
2018-11-03T18:32:07.056Z,43.63
2018-11-03T18:34:37.128Z,41.90
2018-11-03T18:37:07.106Z,41.40
2018-11-03T18:39:37.169Z,40.53
2018-11-03T18:42:07.248Z,43.93
2018-11-03T18:44:37.242Z,42.53
2018-11-03T18:47:07.202Z,41.83
2018-11-03T18:49:37.206Z,46.00
2018-11-03T18:52:07.256Z,42.77
2018-11-03T18:54:37.200Z,40.53
2018-11-03T18:57:07.171Z,55.23
2018-11-03T18:59:37.191Z,43.93
2018-11-03T19:02:07.118Z,37.90
2018-11-03T19:04:37.173Z,38.77
2018-11-03T19:07:07.147Z,36.07
2018-11-03T19:09:37.151Z,36.83
2018-11-03T19:12:07.865Z,37.23
2018-11-03T19:14:37.909Z,40.53
2018-11-03T19:17:07.910Z,50.50
2018-11-03T19:19:37.851Z,60.37
2018-11-03T19:22:08.787Z,58.50
2018-11-03T19:24:38.678Z,54.43
2018-11-03T19:27:08.752Z,50.87
2018-11-03T19:29:38.899Z,50.00
2018-11-03T19:32:08.877Z,47.63
2018-11-03T19:34:38.897Z,49.03
2018-11-03T19:37:08.867Z,46.30
2018-11-03T19:39:38.803Z,44.90
2018-11-03T19:42:08.667Z,43.33
2018-11-03T19:44:38.701Z,43.37
2018-11-03T19:47:08.782Z,45.53
2018-11-03T19:49:38.873Z,46.70
2018-11-03T19:52:09.019Z,46.17
2018-11-03T19:54:39.010Z,46.37
2018-11-03T19:57:08.942Z,46.83
2018-11-03T19:59:38.955Z,54.70
2018-11-03T20:02:08.915Z,51.13
2018-11-03T20:04:38.991Z,51.07
2018-11-03T20:07:09.135Z,49.67
2018-11-03T20:09:39.315Z,49.37
2018-11-03T20:12:09.642Z,47.67
2018-11-03T20:14:39.598Z,49.80
2018-11-03T20:17:09.639Z,48.03
2018-11-03T20:19:39.688Z,47.87
2018-11-03T20:22:09.672Z,48.90
2018-11-03T20:24:39.891Z,53.67
2018-11-03T20:27:09.989Z,50.87
2018-11-03T20:29:40.008Z,51.47
2018-11-03T20:32:09.996Z,48.30
2018-11-03T20:34:40.209Z,46.37
2018-11-03T20:37:10.187Z,45.90
2018-11-03T20:39:40.403Z,47.67
2018-11-03T20:42:10.327Z,48.30
2018-11-03T20:44:40.195Z,48.47
2018-11-03T20:47:11.326Z,49.20
2018-11-03T20:49:41.254Z,50.13
2018-11-03T20:52:11.463Z,47.97
2018-11-03T20:54:41.315Z,51.07
2018-11-03T20:57:11.200Z,52.20
2018-11-03T20:59:41.111Z,50.63
2018-11-03T21:02:11.204Z,49.90
2018-11-03T21:04:40.990Z,51.37
2018-11-03T21:07:10.909Z,53.30
2018-11-03T21:09:40.846Z,53.30
2018-11-03T21:12:10.826Z,53.43
2018-11-03T21:14:40.744Z,51.90
2018-11-03T21:17:10.695Z,48.23
2018-11-03T21:19:40.591Z,48.40
2018-11-03T21:22:12.112Z,50.47
2018-11-03T21:24:42.903Z,49.27
2018-11-03T21:27:13.269Z,49.97
2018-11-03T21:29:43.394Z,49.57
2018-11-03T21:32:13.441Z,48.67
2018-11-03T21:34:43.326Z,47.77
2018-11-03T21:37:13.240Z,46.10
2018-11-03T21:39:43.595Z,46.70
2018-11-03T21:42:13.571Z,45.10
2018-11-03T21:44:43.527Z,45.80
2018-11-03T21:47:13.595Z,44.37
2018-11-03T21:49:43.478Z,45.63
2018-11-03T21:52:13.395Z,44.13
2018-11-03T21:54:43.319Z,46.03
2018-11-03T21:57:13.258Z,47.07
2018-11-03T21:59:43.194Z,65.23
2018-11-03T22:02:13.009Z,46.13
2018-11-03T22:04:42.847Z,45.33
2018-11-03T22:07:12.803Z,45.27
2018-11-03T22:09:42.631Z,47.23
2018-11-03T22:12:12.518Z,47.13
2018-11-03T22:14:42.484Z,46.20
2018-11-03T22:17:12.315Z,46.43
2018-11-03T22:19:42.189Z,46.33
2018-11-03T22:22:12.067Z,44.83
2018-11-03T22:24:41.886Z,46.60
2018-11-03T22:27:11.854Z,45.27
2018-11-03T22:29:41.787Z,45.73
2018-11-03T22:32:11.718Z,43.53
2018-11-03T22:34:41.635Z,45.00
2018-11-03T22:37:11.621Z,47.33
2018-11-03T22:39:41.484Z,46.73
2018-11-03T22:42:11.467Z,46.97
2018-11-03T22:44:41.404Z,46.10
2018-11-03T22:47:11.365Z,45.10
2018-11-03T22:49:41.301Z,43.43
2018-11-03T22:52:11.228Z,46.33
2018-11-03T22:54:41.168Z,45.03
2018-11-03T22:57:11.089Z,44.47
2018-11-03T22:59:40.990Z,46.37
2018-11-03T23:02:10.899Z,46.03
2018-11-03T23:04:40.782Z,45.23
2018-11-03T23:07:10.719Z,46.00
2018-11-03T23:09:40.625Z,44.27
2018-11-03T23:12:10.490Z,44.73
2018-11-03T23:14:40.370Z,44.43
2018-11-03T23:17:10.213Z,46.30
2018-11-03T23:19:40.384Z,46.37
2018-11-03T23:22:10.279Z,45.00
2018-11-03T23:24:40.211Z,46.87
2018-11-03T23:27:10.047Z,45.07
2018-11-03T23:29:40.107Z,46.73
2018-11-03T23:32:09.923Z,46.03
2018-11-03T23:34:39.863Z,45.67
2018-11-03T23:37:09.913Z,45.37
2018-11-03T23:39:39.780Z,45.93
2018-11-03T23:42:09.757Z,45.20
2018-11-03T23:44:39.692Z,45.70
2018-11-03T23:47:09.497Z,45.00
2018-11-03T23:49:39.360Z,44.43
2018-11-03T23:52:09.271Z,44.97
2018-11-03T23:54:39.133Z,43.50
2018-11-03T23:57:08.943Z,47.40
2018-11-03T23:59:38.892Z,45.63
